sensor_id;sensor_type;location;lat;lon;timestamp;pressure;altitude;pressure_sealevel;temperature;humidity
10587;BME280;5341;47.606;7.576;2023-04-22T00:00:26;98097.25;;;13.87;55.80
10587;BME280;5341;47.606;7.576;2023-04-22T00:02:54;98099.13;;;13.87;55.99
10587;BME280;5341;47.606;7.576;2023-04-22T00:05:22;98100.59;;;13.83;55.65
10587;BME280;5341;47.606;7.576;2023-04-22T00:07:49;98099.97;;;13.81;55.81
10587;BME280;5341;47.606;7.576;2023-04-22T00:10:17;98108.03;;;13.81;55.68
10587;BME280;5341;47.606;7.576;2023-04-22T00:12:45;98105.34;;;13.81;55.79
10587;BME280;5341;47.606;7.576;2023-04-22T00:15:12;98101.66;;;13.82;55.84
10587;BME280;5341;47.606;7.576;2023-04-22T00:17:41;98097.28;;;13.81;55.53
10587;BME280;5341;47.606;7.576;2023-04-22T00:20:11;98096.69;;;13.78;55.80
10587;BME280;5341;47.606;7.576;2023-04-22T00:22:38;98110.94;;;13.79;55.77
10587;BME280;5341;47.606;7.576;2023-04-22T00:25:06;98098.34;;;13.79;55.84
10587;BME280;5341;47.606;7.576;2023-04-22T00:27:34;98099.38;;;13.78;55.82
10587;BME280;5341;47.606;7.576;2023-04-22T00:30:01;98105.56;;;13.79;55.72
10587;BME280;5341;47.606;7.576;2023-04-22T00:32:29;98107.22;;;13.80;56.09
10587;BME280;5341;47.606;7.576;2023-04-22T00:34:58;98101.84;;;13.80;56.10
10587;BME280;5341;47.606;7.576;2023-04-22T00:37:25;98093.19;;;13.78;55.76
10587;BME280;5341;47.606;7.576;2023-04-22T00:39:53;98092.38;;;13.77;55.82
10587;BME280;5341;47.606;7.576;2023-04-22T00:42:23;98093.41;;;13.76;55.60
10587;BME280;5341;47.606;7.576;2023-04-22T00:44:52;98100.66;;;13.76;55.67
10587;BME280;5341;47.606;7.576;2023-04-22T00:47:20;98091.75;;;13.75;56.01
10587;BME280;5341;47.606;7.576;2023-04-22T00:49:52;98083.94;;;13.74;55.79
10587;BME280;5341;47.606;7.576;2023-04-22T00:52:22;98088.25;;;13.75;55.94
10587;BME280;5341;47.606;7.576;2023-04-22T00:54:50;98083.09;;;13.73;56.17
10587;BME280;5341;47.606;7.576;2023-04-22T00:57:18;98081.25;;;13.74;56.06
10587;BME280;5341;47.606;7.576;2023-04-22T00:59:46;98088.69;;;13.72;56.08
10587;BME280;5341;47.606;7.576;2023-04-22T01:02:15;98086.25;;;13.70;55.98
10587;BME280;5341;47.606;7.576;2023-04-22T01:04:44;98081.91;;;13.69;56.20
10587;BME280;5341;47.606;7.576;2023-04-22T01:07:11;98086.47;;;13.69;56.20
10587;BME280;5341;47.606;7.576;2023-04-22T01:09:40;98081.09;;;13.69;56.45
10587;BME280;5341;47.606;7.576;2023-04-22T01:12:08;98092.84;;;13.68;56.27
10587;BME280;5341;47.606;7.576;2023-04-22T01:14:36;98087.69;;;13.66;55.81
10587;BME280;5341;47.606;7.576;2023-04-22T01:17:04;98087.09;;;13.64;56.14
10587;BME280;5341;47.606;7.576;2023-04-22T01:19:35;98087.31;;;13.63;56.20
10587;BME280;5341;47.606;7.576;2023-04-22T01:22:04;98078.66;;;13.61;56.08
10587;BME280;5341;47.606;7.576;2023-04-22T01:24:35;98084.84;;;13.61;56.24
10587;BME280;5341;47.606;7.576;2023-04-22T01:27:03;98081.56;;;13.59;56.26
10587;BME280;5341;47.606;7.576;2023-04-22T01:29:31;98082.81;;;13.57;56.20
10587;BME280;5341;47.606;7.576;2023-04-22T01:32:00;98087.56;;;13.55;56.42
10587;BME280;5341;47.606;7.576;2023-04-22T01:34:29;98090.47;;;13.53;56.38
10587;BME280;5341;47.606;7.576;2023-04-22T01:36:57;98089.44;;;13.54;56.42
10587;BME280;5341;47.606;7.576;2023-04-22T01:39:25;98090.25;;;13.55;56.76
10587;BME280;5341;47.606;7.576;2023-04-22T01:41:55;98092.94;;;13.55;56.39
10587;BME280;5341;47.606;7.576;2023-04-22T01:44:23;98085.94;;;13.54;56.08
10587;BME280;5341;47.606;7.576;2023-04-22T01:46:51;98083.25;;;13.54;56.45
10587;BME280;5341;47.606;7.576;2023-04-22T01:49:20;98085.56;;;13.50;56.20
10587;BME280;5341;47.606;7.576;2023-04-22T01:51:50;98089.50;;;13.47;56.39
10587;BME280;5341;47.606;7.576;2023-04-22T01:54:19;98095.69;;;13.48;56.35
10587;BME280;5341;47.606;7.576;2023-04-22T01:56:51;98095.91;;;13.46;56.37
10587;BME280;5341;47.606;7.576;2023-04-22T01:59:20;98103.34;;;13.44;56.66
10587;BME280;5341;47.606;7.576;2023-04-22T02:01:49;98106.47;;;13.41;56.49
10587;BME280;5341;47.606;7.576;2023-04-22T02:04:18;98115.56;;;13.40;56.77
10587;BME280;5341;47.606;7.576;2023-04-22T02:06:46;98116.59;;;13.39;56.58
10587;BME280;5341;47.606;7.576;2023-04-22T02:09:13;98119.91;;;13.41;56.74
10587;BME280;5341;47.606;7.576;2023-04-22T02:11:41;98126.09;;;13.42;56.90
10587;BME280;5341;47.606;7.576;2023-04-22T02:14:08;98132.50;;;13.41;56.89
10587;BME280;5341;47.606;7.576;2023-04-22T02:16:39;98127.94;;;13.41;56.80
10587;BME280;5341;47.606;7.576;2023-04-22T02:19:07;98142.41;;;13.40;56.63
10587;BME280;5341;47.606;7.576;2023-04-22T02:21:35;98138.91;;;13.40;56.68
10587;BME280;5341;47.606;7.576;2023-04-22T02:24:03;98136.44;;;13.38;56.63
10587;BME280;5341;47.606;7.576;2023-04-22T02:26:30;98132.13;;;13.37;56.39
10587;BME280;5341;47.606;7.576;2023-04-22T02:28:59;98138.53;;;13.36;56.35
10587;BME280;5341;47.606;7.576;2023-04-22T02:31:26;98137.50;;;13.31;56.47
10587;BME280;5341;47.606;7.576;2023-04-22T02:33:56;98149.28;;;13.30;56.61
10587;BME280;5341;47.606;7.576;2023-04-22T02:36:23;98149.28;;;13.30;56.76
10587;BME280;5341;47.606;7.576;2023-04-22T02:38:52;98151.97;;;13.30;56.91
10587;BME280;5341;47.606;7.576;2023-04-22T02:41:20;98156.31;;;13.31;56.94
10587;BME280;5341;47.606;7.576;2023-04-22T02:43:48;98160.84;;;13.30;57.05
10587;BME280;5341;47.606;7.576;2023-04-22T02:46:16;98161.06;;;13.29;57.18
10587;BME280;5341;47.606;7.576;2023-04-22T02:48:47;98169.94;;;13.29;56.74
10587;BME280;5341;47.606;7.576;2023-04-22T02:51:19;98163.16;;;13.27;56.99
10587;BME280;5341;47.606;7.576;2023-04-22T02:53:46;98161.28;;;13.27;57.14
10587;BME280;5341;47.606;7.576;2023-04-22T02:56:14;98160.47;;;13.27;56.75
10587;BME280;5341;47.606;7.576;2023-04-22T02:58:41;98165.03;;;13.26;56.98
10587;BME280;5341;47.606;7.576;2023-04-22T03:01:12;98165.22;;;13.25;56.98
10587;BME280;5341;47.606;7.576;2023-04-22T03:03:41;98163.59;;;13.24;56.80
10587;BME280;5341;47.606;7.576;2023-04-22T03:06:17;98165.44;;;13.23;56.88
10587;BME280;5341;47.606;7.576;2023-04-22T03:08:46;98161.94;;;13.23;56.63
10587;BME280;5341;47.606;7.576;2023-04-22T03:11:13;98164.63;;;13.23;56.50
10587;BME280;5341;47.606;7.576;2023-04-22T03:13:43;98162.16;;;13.21;56.62
10587;BME280;5341;47.606;7.576;2023-04-22T03:16:11;98166.50;;;13.22;57.11
10587;BME280;5341;47.606;7.576;2023-04-22T03:18:38;98164.84;;;13.21;56.76
10587;BME280;5341;47.606;7.576;2023-04-22T03:21:06;98173.91;;;13.20;56.75
10587;BME280;5341;47.606;7.576;2023-04-22T03:23:34;98167.72;;;13.19;56.96
10587;BME280;5341;47.606;7.576;2023-04-22T03:26:03;98153.66;;;13.17;56.52
10587;BME280;5341;47.606;7.576;2023-04-22T03:28:31;98154.09;;;13.14;56.54
10587;BME280;5341;47.606;7.576;2023-04-22T03:30:59;98154.09;;;13.14;56.76
10587;BME280;5341;47.606;7.576;2023-04-22T03:33:26;98155.13;;;13.13;56.68
10587;BME280;5341;47.606;7.576;2023-04-22T03:35:59;98153.28;;;13.14;56.84
10587;BME280;5341;47.606;7.576;2023-04-22T03:38:26;98139.03;;;13.13;56.86
10587;BME280;5341;47.606;7.576;2023-04-22T03:40:54;98141.94;;;13.12;56.77
10587;BME280;5341;47.606;7.576;2023-04-22T03:43:36;98145.66;;;13.11;56.52
10587;BME280;5341;47.606;7.576;2023-04-22T03:46:07;98150.41;;;13.09;56.70
10587;BME280;5341;47.606;7.576;2023-04-22T03:48:38;98138.84;;;13.08;56.66
10587;BME280;5341;47.606;7.576;2023-04-22T03:51:35;98146.06;;;13.08;57.05
10587;BME280;5341;47.606;7.576;2023-04-22T03:54:08;98146.06;;;13.08;56.64
10587;BME280;5341;47.606;7.576;2023-04-22T03:56:40;98135.53;;;13.06;56.67
10587;BME280;5341;47.606;7.576;2023-04-22T03:59:09;98134.94;;;13.04;56.71
10587;BME280;5341;47.606;7.576;2023-04-22T04:01:37;98129.56;;;13.04;56.94
10587;BME280;5341;47.606;7.576;2023-04-22T04:04:06;98133.28;;;13.03;57.06
10587;BME280;5341;47.606;7.576;2023-04-22T04:06:40;98139.69;;;13.02;56.73
10587;BME280;5341;47.606;7.576;2023-04-22T04:09:07;98141.56;;;13.02;56.95
10587;BME280;5341;47.606;7.576;2023-04-22T04:11:36;98140.94;;;13.00;56.67
10587;BME280;5341;47.606;7.576;2023-04-22T04:14:04;98138.69;;;12.97;57.04
10587;BME280;5341;47.606;7.576;2023-04-22T04:16:41;98137.25;;;12.94;56.94
10587;BME280;5341;47.606;7.576;2023-04-22T04:19:14;98144.69;;;12.92;57.10
10587;BME280;5341;47.606;7.576;2023-04-22T04:21:42;98147.59;;;12.90;56.99
10587;BME280;5341;47.606;7.576;2023-04-22T04:24:10;98146.38;;;12.86;56.94
10587;BME280;5341;47.606;7.576;2023-04-22T04:26:43;98149.88;;;12.87;57.51
10587;BME280;5341;47.606;7.576;2023-04-22T04:29:18;98148.22;;;12.86;57.55
10587;BME280;5341;47.606;7.576;2023-04-22T04:31:57;98139.75;;;12.82;57.25
10587;BME280;5341;47.606;7.576;2023-04-22T04:34:26;98125.72;;;12.80;57.76
10587;BME280;5341;47.606;7.576;2023-04-22T04:36:54;98128.41;;;12.80;57.29
10587;BME280;5341;47.606;7.576;2023-04-22T04:39:27;98130.28;;;12.80;57.69
10587;BME280;5341;47.606;7.576;2023-04-22T04:41:57;98132.34;;;12.78;58.05
10587;BME280;5341;47.606;7.576;2023-04-22T04:44:28;98135.84;;;12.78;57.66
10587;BME280;5341;47.606;7.576;2023-04-22T04:46:59;98143.09;;;12.78;57.67
10587;BME280;5341;47.606;7.576;2023-04-22T04:49:27;98128.03;;;12.77;57.46
10587;BME280;5341;47.606;7.576;2023-04-22T04:51:57;98130.28;;;12.80;57.81
10587;BME280;5341;47.606;7.576;2023-04-22T04:54:27;98139.16;;;12.80;57.56
10587;BME280;5341;47.606;7.576;2023-04-22T04:56:55;98131.09;;;12.80;57.38
10587;BME280;5341;47.606;7.576;2023-04-22T04:59:24;98136.25;;;12.82;57.63
10587;BME280;5341;47.606;7.576;2023-04-22T05:01:52;98136.25;;;12.82;57.51
10587;BME280;5341;47.606;7.576;2023-04-22T05:04:22;98136.25;;;12.82;57.77
10587;BME280;5341;47.606;7.576;2023-04-22T05:06:49;98136.03;;;12.83;57.49
10587;BME280;5341;47.606;7.576;2023-04-22T05:09:17;98142.22;;;12.84;57.78
10587;BME280;5341;47.606;7.576;2023-04-22T05:11:47;98143.06;;;12.84;57.73
10587;BME280;5341;47.606;7.576;2023-04-22T05:14:18;98152.97;;;12.84;57.53
10587;BME280;5341;47.606;7.576;2023-04-22T05:16:46;98154.81;;;12.83;57.61
10587;BME280;5341;47.606;7.576;2023-04-22T05:19:14;98160.00;;;12.85;57.93
10587;BME280;5341;47.606;7.576;2023-04-22T05:21:44;98162.47;;;12.86;57.92
10587;BME280;5341;47.606;7.576;2023-04-22T05:24:13;98164.31;;;12.86;57.81
10587;BME280;5341;47.606;7.576;2023-04-22T05:26:40;98175.66;;;12.88;57.38
10587;BME280;5341;47.606;7.576;2023-04-22T05:29:14;98159.56;;;12.88;57.47
10587;BME280;5341;47.606;7.576;2023-04-22T05:31:41;98160.41;;;12.88;57.72
10587;BME280;5341;47.606;7.576;2023-04-22T05:34:09;98171.13;;;12.88;57.55
10587;BME280;5341;47.606;7.576;2023-04-22T05:36:37;98167.41;;;12.89;57.84
10587;BME280;5341;47.606;7.576;2023-04-22T05:39:06;98165.31;;;12.91;58.03
10587;BME280;5341;47.606;7.576;2023-04-22T05:41:34;98167.78;;;12.93;57.84
10587;BME280;5341;47.606;7.576;2023-04-22T05:44:06;98164.91;;;12.95;58.20
10587;BME280;5341;47.606;7.576;2023-04-22T05:46:38;98175.41;;;12.96;57.88
10587;BME280;5341;47.606;7.576;2023-04-22T05:49:07;98178.75;;;12.98;58.00
10587;BME280;5341;47.606;7.576;2023-04-22T05:51:53;98183.06;;;12.99;57.77
10587;BME280;5341;47.606;7.576;2023-04-22T05:54:27;98180.16;;;13.01;58.03
10587;BME280;5341;47.606;7.576;2023-04-22T05:56:55;98180.78;;;13.03;58.35
10587;BME280;5341;47.606;7.576;2023-04-22T05:59:24;98184.28;;;13.03;57.89
10587;BME280;5341;47.606;7.576;2023-04-22T06:01:51;98184.66;;;13.07;58.43
10587;BME280;5341;47.606;7.576;2023-04-22T06:04:19;98190.69;;;13.09;58.33
10587;BME280;5341;47.606;7.576;2023-04-22T06:06:47;98203.66;;;13.12;58.56
10587;BME280;5341;47.606;7.576;2023-04-22T06:09:15;98205.09;;;13.14;58.59
10587;BME280;5341;47.606;7.576;2023-04-22T06:11:45;98194.97;;;13.16;58.49
10587;BME280;5341;47.606;7.576;2023-04-22T06:14:13;98199.13;;;13.19;58.68
10587;BME280;5341;47.606;7.576;2023-04-22T06:16:42;98196.03;;;13.22;58.63
10587;BME280;5341;47.606;7.576;2023-04-22T06:19:10;98202.00;;;13.24;58.86
10587;BME280;5341;47.606;7.576;2023-04-22T06:21:38;98204.25;;;13.27;58.62
10587;BME280;5341;47.606;7.576;2023-04-22T06:24:07;98202.19;;;13.29;58.46
10587;BME280;5341;47.606;7.576;2023-04-22T06:26:35;98203.59;;;13.32;58.42
10587;BME280;5341;47.606;7.576;2023-04-22T06:29:05;98210.44;;;13.34;58.51
10587;BME280;5341;47.606;7.576;2023-04-22T06:31:33;98219.09;;;13.36;58.43
10587;BME280;5341;47.606;7.576;2023-04-22T06:34:01;98219.69;;;13.38;58.42
10587;BME280;5341;47.606;7.576;2023-04-22T06:36:29;98220.31;;;13.40;58.44
10587;BME280;5341;47.606;7.576;2023-04-22T06:39:01;98227.31;;;13.41;58.32
10587;BME280;5341;47.606;7.576;2023-04-22T06:41:39;98218.22;;;13.42;58.33
10587;BME280;5341;47.606;7.576;2023-04-22T06:44:26;98207.25;;;13.44;58.60
10587;BME280;5341;47.606;7.576;2023-04-22T06:47:12;98231.25;;;13.45;58.56
10587;BME280;5341;47.606;7.576;2023-04-22T06:50:01;98217.59;;;13.47;58.11
10587;BME280;5341;47.606;7.576;2023-04-22T06:52:34;98223.59;;;13.49;57.91
10587;BME280;5341;47.606;7.576;2023-04-22T06:55:02;98221.72;;;13.49;58.17
10587;BME280;5341;47.606;7.576;2023-04-22T06:57:30;98213.22;;;13.53;58.32
10587;BME280;5341;47.606;7.576;2023-04-22T06:59:59;98225.63;;;13.54;58.06
10587;BME280;5341;47.606;7.576;2023-04-22T07:02:27;98215.69;;;13.54;57.92
10587;BME280;5341;47.606;7.576;2023-04-22T07:04:54;98223.34;;;13.57;57.88
10587;BME280;5341;47.606;7.576;2023-04-22T07:07:23;98224.16;;;13.58;58.10
10587;BME280;5341;47.606;7.576;2023-04-22T07:09:50;98223.94;;;13.59;57.81
10587;BME280;5341;47.606;7.576;2023-04-22T07:12:19;98203.88;;;13.62;58.10
10587;BME280;5341;47.606;7.576;2023-04-22T07:14:48;98220.59;;;13.64;57.81
10587;BME280;5341;47.606;7.576;2023-04-22T07:17:17;98213.16;;;13.66;58.07
10587;BME280;5341;47.606;7.576;2023-04-22T07:19:47;98219.13;;;13.68;57.76
10587;BME280;5341;47.606;7.576;2023-04-22T07:22:14;98224.09;;;13.71;57.71
10587;BME280;5341;47.606;7.576;2023-04-22T07:24:42;98216.63;;;13.73;58.00
10587;BME280;5341;47.606;7.576;2023-04-22T07:27:10;98223.22;;;13.77;57.91
10587;BME280;5341;47.606;7.576;2023-04-22T07:29:39;98221.78;;;13.81;57.79
10587;BME280;5341;47.606;7.576;2023-04-22T07:32:07;98216.78;;;13.85;57.97
10587;BME280;5341;47.606;7.576;2023-04-22T07:34:36;98205.38;;;13.89;58.21
10587;BME280;5341;47.606;7.576;2023-04-22T07:37:04;98198.31;;;13.95;58.13
10587;BME280;5341;47.606;7.576;2023-04-22T07:39:34;98200.34;;;13.99;58.06
10587;BME280;5341;47.606;7.576;2023-04-22T07:42:02;98181.06;;;14.02;58.25
10587;BME280;5341;47.606;7.576;2023-04-22T07:44:29;98193.88;;;14.07;58.08
10587;BME280;5341;47.606;7.576;2023-04-22T07:46:57;98188.66;;;14.12;57.97
10587;BME280;5341;47.606;7.576;2023-04-22T07:49:25;98188.00;;;14.17;58.00
10587;BME280;5341;47.606;7.576;2023-04-22T07:51:54;98179.50;;;14.20;57.68
10587;BME280;5341;47.606;7.576;2023-04-22T07:54:21;98182.78;;;14.22;57.72
10587;BME280;5341;47.606;7.576;2023-04-22T07:56:49;98179.66;;;14.25;57.61
10587;BME280;5341;47.606;7.576;2023-04-22T07:59:16;98183.75;;;14.27;57.56
10587;BME280;5341;47.606;7.576;2023-04-22T08:01:44;98185.22;;;14.30;57.22
10587;BME280;5341;47.606;7.576;2023-04-22T08:04:12;98183.72;;;14.34;57.21
10587;BME280;5341;47.606;7.576;2023-04-22T08:06:39;98186.78;;;14.37;57.07
10587;BME280;5341;47.606;7.576;2023-04-22T08:09:08;98183.66;;;14.41;56.90
10587;BME280;5341;47.606;7.576;2023-04-22T08:11:36;98182.63;;;14.42;56.76
10587;BME280;5341;47.606;7.576;2023-04-22T08:14:03;98180.34;;;14.45;56.59
10587;BME280;5341;47.606;7.576;2023-04-22T08:16:31;98184.22;;;14.49;56.41
10587;BME280;5341;47.606;7.576;2023-04-22T08:18:58;98175.72;;;14.52;56.46
10587;BME280;5341;47.606;7.576;2023-04-22T08:21:26;98175.28;;;14.55;56.40
10587;BME280;5341;47.606;7.576;2023-04-22T08:23:53;98182.91;;;14.58;56.30
10587;BME280;5341;47.606;7.576;2023-04-22T08:26:22;98181.41;;;14.62;56.30
10587;BME280;5341;47.606;7.576;2023-04-22T08:28:50;98173.72;;;14.66;56.33
10587;BME280;5341;47.606;7.576;2023-04-22T08:31:18;98177.63;;;14.70;56.27
10587;BME280;5341;47.606;7.576;2023-04-22T08:33:45;98174.00;;;14.76;56.30
10587;BME280;5341;47.606;7.576;2023-04-22T08:36:13;98180.41;;;14.82;56.02
10587;BME280;5341;47.606;7.576;2023-04-22T08:38:41;98175.75;;;14.89;55.95
10587;BME280;5341;47.606;7.576;2023-04-22T08:41:08;98172.75;;;14.97;55.92
10587;BME280;5341;47.606;7.576;2023-04-22T08:43:37;98185.69;;;15.07;55.98
10587;BME280;5341;47.606;7.576;2023-04-22T08:46:05;98185.19;;;15.16;56.11
10587;BME280;5341;47.606;7.576;2023-04-22T08:48:32;98181.09;;;15.25;55.67
10587;BME280;5341;47.606;7.576;2023-04-22T08:51:00;98168.16;;;15.34;55.49
10587;BME280;5341;47.606;7.576;2023-04-22T08:53:27;98165.97;;;15.43;55.51
10587;BME280;5341;47.606;7.576;2023-04-22T08:55:55;98166.69;;;15.50;55.30
10587;BME280;5341;47.606;7.576;2023-04-22T08:58:24;98169.91;;;15.59;54.83
10587;BME280;5341;47.606;7.576;2023-04-22T09:00:53;98165.28;;;15.66;54.65
10587;BME280;5341;47.606;7.576;2023-04-22T09:03:21;98158.13;;;15.71;54.69
10587;BME280;5341;47.606;7.576;2023-04-22T09:05:50;98161.81;;;15.77;54.76
10587;BME280;5341;47.606;7.576;2023-04-22T09:08:18;98162.28;;;15.86;54.58
10587;BME280;5341;47.606;7.576;2023-04-22T09:10:45;98160.06;;;15.94;54.70
10587;BME280;5341;47.606;7.576;2023-04-22T09:13:13;98156.81;;;16.04;54.64
10587;BME280;5341;47.606;7.576;2023-04-22T09:15:42;98151.09;;;16.12;54.71
10587;BME280;5341;47.606;7.576;2023-04-22T09:18:11;98157.78;;;16.21;54.47
10587;BME280;5341;47.606;7.576;2023-04-22T09:20:41;98152.28;;;16.28;54.10
10587;BME280;5341;47.606;7.576;2023-04-22T09:23:11;98151.56;;;16.32;54.24
10587;BME280;5341;47.606;7.576;2023-04-22T09:25:39;98154.97;;;16.39;54.04
10587;BME280;5341;47.606;7.576;2023-04-22T09:28:11;98152.97;;;16.47;53.55
10587;BME280;5341;47.606;7.576;2023-04-22T09:30:39;98148.28;;;16.54;53.37
10587;BME280;5341;47.606;7.576;2023-04-22T09:33:08;98148.19;;;16.60;52.90
10587;BME280;5341;47.606;7.576;2023-04-22T09:35:40;98142.63;;;16.67;52.67
10587;BME280;5341;47.606;7.576;2023-04-22T09:38:09;98137.16;;;16.74;52.66
10587;BME280;5341;47.606;7.576;2023-04-22T09:40:40;98138.91;;;16.80;52.63
10587;BME280;5341;47.606;7.576;2023-04-22T09:43:08;98139.84;;;16.85;52.23
10587;BME280;5341;47.606;7.576;2023-04-22T09:45:37;98144.28;;;16.91;51.64
10587;BME280;5341;47.606;7.576;2023-04-22T09:48:07;98140.88;;;16.96;51.52
10587;BME280;5341;47.606;7.576;2023-04-22T09:50:35;98142.59;;;17.02;51.56
10587;BME280;5341;47.606;7.576;2023-04-22T09:53:10;98139.19;;;17.07;51.70
10587;BME280;5341;47.606;7.576;2023-04-22T09:55:39;98138.81;;;17.15;51.90
10587;BME280;5341;47.606;7.576;2023-04-22T09:58:10;98135.50;;;17.24;52.20
10587;BME280;5341;47.606;7.576;2023-04-22T10:00:40;98117.38;;;17.37;51.91
10587;BME280;5341;47.606;7.576;2023-04-22T10:03:08;98124.94;;;17.51;51.66
10587;BME280;5341;47.606;7.576;2023-04-22T10:05:35;98122.75;;;17.65;51.83
10587;BME280;5341;47.606;7.576;2023-04-22T10:08:05;98128.13;;;17.77;51.49
10587;BME280;5341;47.606;7.576;2023-04-22T10:10:33;98121.50;;;17.84;51.20
10587;BME280;5341;47.606;7.576;2023-04-22T10:13:01;98118.88;;;17.90;50.82
10587;BME280;5341;47.606;7.576;2023-04-22T10:15:31;98119.22;;;17.93;50.81
10587;BME280;5341;47.606;7.576;2023-04-22T10:18:01;98114.38;;;17.95;50.38
10587;BME280;5341;47.606;7.576;2023-04-22T10:20:29;98112.25;;;17.97;49.85
10587;BME280;5341;47.606;7.576;2023-04-22T10:22:58;98119.84;;;18.00;50.24
10587;BME280;5341;47.606;7.576;2023-04-22T10:25:27;98116.66;;;18.03;49.96
10587;BME280;5341;47.606;7.576;2023-04-22T10:28:01;98120.19;;;18.04;49.89
10587;BME280;5341;47.606;7.576;2023-04-22T10:30:30;98122.31;;;18.02;49.48
10587;BME280;5341;47.606;7.576;2023-04-22T10:36:08;98106.09;;;18.02;49.04
10587;BME280;5341;47.606;7.576;2023-04-22T10:38:36;98112.31;;;18.02;49.20
10587;BME280;5341;47.606;7.576;2023-04-22T10:41:06;98109.34;;;18.04;49.35
10587;BME280;5341;47.606;7.576;2023-04-22T10:43:40;98107.25;;;18.06;48.73
10587;BME280;5341;47.606;7.576;2023-04-22T10:49:22;98113.53;;;18.11;48.29
10587;BME280;5341;47.606;7.576;2023-04-22T10:51:50;98107.88;;;18.13;48.19
10587;BME280;5341;47.606;7.576;2023-04-22T10:57:20;98115.59;;;18.21;48.61
10587;BME280;5341;47.606;7.576;2023-04-22T10:59:52;98118.38;;;18.26;48.96
10587;BME280;5341;47.606;7.576;2023-04-22T11:02:23;98122.25;;;18.30;49.45
10587;BME280;5341;47.606;7.576;2023-04-22T11:05:18;98125.59;;;18.37;49.21
10587;BME280;5341;47.606;7.576;2023-04-22T11:07:49;98129.44;;;18.41;48.95
10587;BME280;5341;47.606;7.576;2023-04-22T11:10:37;98127.38;;;18.49;49.36
10587;BME280;5341;47.606;7.576;2023-04-22T11:13:12;98124.16;;;18.52;49.45
10587;BME280;5341;47.606;7.576;2023-04-22T11:15:42;98126.13;;;18.56;49.27
10587;BME280;5341;47.606;7.576;2023-04-22T11:18:18;98126.19;;;18.61;48.96
10587;BME280;5341;47.606;7.576;2023-04-22T11:20:47;98120.31;;;18.64;49.33
10587;BME280;5341;47.606;7.576;2023-04-22T11:23:21;98117.13;;;18.67;49.28
10587;BME280;5341;47.606;7.576;2023-04-22T11:25:54;98114.97;;;18.69;48.98
10587;BME280;5341;47.606;7.576;2023-04-22T11:28:24;98107.41;;;18.71;49.16
10587;BME280;5341;47.606;7.576;2023-04-22T11:30:52;98118.56;;;18.75;48.94
10587;BME280;5341;47.606;7.576;2023-04-22T11:33:27;98112.66;;;18.78;48.85
10587;BME280;5341;47.606;7.576;2023-04-22T11:35:55;98113.22;;;18.80;48.78
10587;BME280;5341;47.606;7.576;2023-04-22T11:38:23;98108.38;;;18.82;48.48
10587;BME280;5341;47.606;7.576;2023-04-22T11:40:54;98107.03;;;18.85;48.84
10587;BME280;5341;47.606;7.576;2023-04-22T11:43:24;98100.03;;;18.89;49.12
10587;BME280;5341;47.606;7.576;2023-04-22T11:45:54;98100.13;;;18.94;49.01
10587;BME280;5341;47.606;7.576;2023-04-22T11:48:22;98101.00;;;18.99;48.86
10587;BME280;5341;47.606;7.576;2023-04-22T11:51:07;98100.81;;;19.06;48.40
10587;BME280;5341;47.606;7.576;2023-04-22T11:53:36;98084.84;;;19.10;48.36
10587;BME280;5341;47.606;7.576;2023-04-22T11:56:04;98094.69;;;19.16;48.17
10587;BME280;5341;47.606;7.576;2023-04-22T11:58:37;98091.50;;;19.24;48.05
10587;BME280;5341;47.606;7.576;2023-04-22T12:01:10;98095.69;;;19.31;48.13
10587;BME280;5341;47.606;7.576;2023-04-22T12:03:38;98088.72;;;19.41;48.03
10587;BME280;5341;47.606;7.576;2023-04-22T12:06:05;98084.72;;;19.48;48.07
10587;BME280;5341;47.606;7.576;2023-04-22T12:08:34;98080.78;;;19.56;48.17
10587;BME280;5341;47.606;7.576;2023-04-22T12:11:05;98078.69;;;19.63;47.59
10587;BME280;5341;47.606;7.576;2023-04-22T12:13:40;98081.97;;;19.70;47.60
10587;BME280;5341;47.606;7.576;2023-04-22T12:16:10;98084.50;;;19.77;47.13
10587;BME280;5341;47.606;7.576;2023-04-22T12:18:40;98077.19;;;19.82;47.37
10587;BME280;5341;47.606;7.576;2023-04-22T12:21:09;98082.69;;;19.87;47.73
10587;BME280;5341;47.606;7.576;2023-04-22T12:23:40;98085.69;;;19.91;48.06
10587;BME280;5341;47.606;7.576;2023-04-22T12:26:09;98087.34;;;19.97;47.82
10587;BME280;5341;47.606;7.576;2023-04-22T12:28:38;98093.22;;;20.16;47.64
10587;BME280;5341;47.606;7.576;2023-04-22T12:31:06;98096.16;;;20.46;47.05
10587;BME280;5341;47.606;7.576;2023-04-22T12:33:35;98094.13;;;20.69;47.18
10587;BME280;5341;47.606;7.576;2023-04-22T12:36:03;98095.25;;;20.73;47.75
10587;BME280;5341;47.606;7.576;2023-04-22T12:38:31;98098.47;;;20.70;47.42
10587;BME280;5341;47.606;7.576;2023-04-22T12:40:59;98102.03;;;20.75;48.03
10587;BME280;5341;47.606;7.576;2023-04-22T12:43:26;98099.34;;;20.81;47.72
10587;BME280;5341;47.606;7.576;2023-04-22T12:45:55;98098.28;;;20.87;47.97
10587;BME280;5341;47.606;7.576;2023-04-22T12:48:23;98107.81;;;20.89;48.22
10587;BME280;5341;47.606;7.576;2023-04-22T12:50:50;98104.28;;;20.94;47.87
10587;BME280;5341;47.606;7.576;2023-04-22T12:53:19;98100.28;;;21.12;47.64
10587;BME280;5341;47.606;7.576;2023-04-22T12:55:47;98108.56;;;21.42;45.90
10587;BME280;5341;47.606;7.576;2023-04-22T12:58:15;98111.84;;;21.54;47.25
10587;BME280;5341;47.606;7.576;2023-04-22T13:00:42;98111.03;;;21.49;47.72
10587;BME280;5341;47.606;7.576;2023-04-22T13:03:11;98117.28;;;21.39;47.68
10587;BME280;5341;47.606;7.576;2023-04-22T13:05:39;98112.38;;;21.41;48.33
10587;BME280;5341;47.606;7.576;2023-04-22T13:08:06;98117.88;;;21.61;45.80
10587;BME280;5341;47.606;7.576;2023-04-22T13:10:34;98126.59;;;21.89;44.61
10587;BME280;5341;47.606;7.576;2023-04-22T13:13:01;98125.78;;;22.04;44.10
10587;BME280;5341;47.606;7.576;2023-04-22T13:15:29;98129.91;;;22.16;44.88
10587;BME280;5341;47.606;7.576;2023-04-22T13:17:56;98136.72;;;22.44;44.58
10587;BME280;5341;47.606;7.576;2023-04-22T13:20:25;98126.78;;;22.99;44.56
10587;BME280;5341;47.606;7.576;2023-04-22T13:22:53;98129.03;;;23.52;42.55
10587;BME280;5341;47.606;7.576;2023-04-22T13:25:21;98122.06;;;23.80;43.21
10587;BME280;5341;47.606;7.576;2023-04-22T13:27:48;98116.56;;;24.19;42.40
10587;BME280;5341;47.606;7.576;2023-04-22T13:30:16;98118.53;;;24.13;43.15